createdAt,value
2019-02-11T00:00:05.842Z,98193.86
2019-02-11T00:02:47.263Z,98184.69
2019-02-11T00:05:19.120Z,98194.91
2019-02-11T00:07:59.134Z,98198.94
2019-02-11T00:10:35.843Z,98207.56
2019-02-11T00:13:32.565Z,98225.14
2019-02-11T00:16:03.614Z,98250.22
2019-02-11T00:18:47.406Z,98266.52
2019-02-11T00:21:24.257Z,98273.50
2019-02-11T00:23:59.055Z,98276.58
2019-02-11T00:26:35.823Z,98292.13
2019-02-11T00:29:11.613Z,98295.69
2019-02-11T00:31:47.869Z,98302.14
2019-02-11T00:34:20.544Z,98303.91
2019-02-11T00:36:51.476Z,98309.48
2019-02-11T00:39:27.004Z,98306.23
2019-02-11T00:42:00.562Z,98318.45
2019-02-11T00:44:33.137Z,98327.59
2019-02-11T00:47:05.401Z,98328.38
2019-02-11T00:49:41.257Z,98337.23
2019-02-11T00:52:12.227Z,98343.72
2019-02-11T00:54:59.804Z,98343.31
2019-02-11T00:57:37.546Z,98350.39
2019-02-11T01:00:16.840Z,98349.40
2019-02-11T01:02:47.905Z,98349.95
2019-02-11T01:05:24.150Z,98363.64
2019-02-11T01:08:01.120Z,98366.62
2019-02-11T01:10:35.066Z,98367.85
2019-02-11T01:13:09.877Z,98380.63
2019-02-11T01:15:51.756Z,98388.03
2019-02-11T01:18:23.125Z,98392.48
2019-02-11T01:20:54.438Z,98407.95
2019-02-11T01:23:26.350Z,98411.43
2019-02-11T01:25:57.114Z,98397.53
2019-02-11T01:28:28.012Z,98416.05
2019-02-11T01:30:58.915Z,98421.34
2019-02-11T01:33:30.576Z,98420.31
2019-02-11T01:36:01.504Z,98421.13
2019-02-11T01:38:37.148Z,98423.72
2019-02-11T01:41:08.576Z,98440.81
2019-02-11T01:43:39.666Z,98450.55
2019-02-11T01:46:13.043Z,98455.87
2019-02-11T01:48:44.420Z,98468.30
2019-02-11T01:51:16.692Z,98468.77
2019-02-11T01:53:48.129Z,98478.97
2019-02-11T01:56:22.255Z,98477.41
2019-02-11T01:58:53.698Z,98491.42
2019-02-11T02:01:28.811Z,98493.86
2019-02-11T02:04:03.674Z,98505.00
2019-02-11T02:06:34.814Z,98501.48
2019-02-11T02:09:08.506Z,98507.66
2019-02-11T02:11:42.451Z,98516.14
2019-02-11T02:14:13.166Z,98523.53
2019-02-11T02:16:47.426Z,98523.47
2019-02-11T02:19:24.403Z,98534.09
2019-02-11T02:21:59.305Z,98532.82
2019-02-11T02:24:30.257Z,98542.66
2019-02-11T02:27:05.172Z,98563.31
2019-02-11T02:29:37.497Z,98570.27
2019-02-11T02:32:10.441Z,98572.58
2019-02-11T02:34:47.268Z,98582.47
2019-02-11T02:37:18.145Z,98579.77
2019-02-11T02:39:54.293Z,98595.14
2019-02-11T02:42:25.821Z,98605.26
2019-02-11T02:45:00.281Z,98625.50
2019-02-11T02:47:33.424Z,98621.94
2019-02-11T02:50:05.452Z,98625.31
2019-02-11T02:52:36.238Z,98631.53
2019-02-11T02:55:09.949Z,98638.72
2019-02-11T02:57:42.959Z,98652.23
2019-02-11T03:00:13.905Z,98661.38
2019-02-11T03:02:44.747Z,98668.14
2019-02-11T03:05:17.675Z,98669.44
2019-02-11T03:07:52.412Z,98681.70
2019-02-11T03:10:26.011Z,98680.58
2019-02-11T03:12:59.157Z,98700.48
2019-02-11T03:15:32.389Z,98713.64
2019-02-11T03:18:03.341Z,98720.17
2019-02-11T03:20:40.307Z,98719.02
2019-02-11T03:23:18.177Z,98727.85
2019-02-11T03:25:51.840Z,98734.23
2019-02-11T03:28:26.541Z,98734.91
2019-02-11T03:30:58.601Z,98744.95
2019-02-11T03:33:32.005Z,98743.70
2019-02-11T03:36:09.387Z,98752.27
2019-02-11T03:38:41.898Z,98758.66
2019-02-11T03:41:18.597Z,98764.59
2019-02-11T03:43:50.072Z,98776.78
2019-02-11T03:46:22.586Z,98785.28
2019-02-11T03:49:00.610Z,98787.18
2019-02-11T03:51:31.496Z,98790.93
2019-02-11T03:54:04.619Z,98801.91
2019-02-11T03:56:35.927Z,98795.48
2019-02-11T03:59:06.890Z,98804.84
2019-02-11T04:01:39.900Z,98818.47
2019-02-11T04:04:13.908Z,98819.67
2019-02-11T04:06:47.512Z,98830.48
2019-02-11T04:09:18.153Z,98832.92
2019-02-11T04:11:51.560Z,98847.03
2019-02-11T04:14:26.253Z,98846.91
2019-02-11T04:17:05.100Z,98855.43
2019-02-11T04:19:36.308Z,98868.05
2019-02-11T04:22:11.255Z,98870.70
2019-02-11T04:24:51.845Z,98882.75
2019-02-11T04:27:23.816Z,98885.62
2019-02-11T04:29:55.642Z,98896.30
2019-02-11T04:32:26.906Z,98903.77
2019-02-11T04:35:00.532Z,98899.09
2019-02-11T04:37:34.619Z,98910.14
2019-02-11T04:40:10.678Z,98915.63
2019-02-11T04:42:40.670Z,98927.19
2019-02-11T04:45:12.265Z,98927.38
2019-02-11T04:47:44.303Z,98928.31
2019-02-11T04:50:18.839Z,98944.59
2019-02-11T04:52:50.306Z,98952.81
2019-02-11T04:55:23.927Z,98954.50
2019-02-11T04:58:06.602Z,98957.75
2019-02-11T05:00:38.636Z,98972.66
2019-02-11T05:03:11.425Z,98978.31
2019-02-11T05:05:46.588Z,98979.91
2019-02-11T05:08:16.756Z,98981.16
2019-02-11T05:10:55.517Z,98982.52
2019-02-11T05:13:31.756Z,98987.27
2019-02-11T05:16:12.806Z,98983.72
2019-02-11T05:18:43.798Z,98987.81
2019-02-11T05:21:18.180Z,98979.91
2019-02-11T05:23:49.726Z,98992.59
2019-02-11T05:26:25.356Z,98986.73
2019-02-11T05:28:56.541Z,99002.17
2019-02-11T05:31:27.509Z,99010.04
2019-02-11T05:34:03.257Z,99008.77
2019-02-11T05:36:35.509Z,99019.89
2019-02-11T05:39:16.585Z,99025.20
2019-02-11T05:41:47.682Z,99033.64
2019-02-11T05:44:18.731Z,99045.63
2019-02-11T05:46:52.537Z,99052.28
2019-02-11T05:49:23.986Z,99055.17
2019-02-11T05:51:57.380Z,99062.75
2019-02-11T05:54:29.174Z,99074.20
2019-02-11T05:57:03.829Z,99081.33
2019-02-11T05:59:56.304Z,99084.81
2019-02-11T06:02:39.140Z,99089.50
2019-02-11T06:05:14.548Z,99076.46
2019-02-11T06:07:53.941Z,99098.89
2019-02-11T06:10:30.282Z,99093.38
2019-02-11T06:13:04.300Z,99107.86
2019-02-11T06:15:38.403Z,99121.53
2019-02-11T06:18:11.540Z,99122.22
2019-02-11T06:20:50.349Z,99129.34
2019-02-11T06:23:21.959Z,99132.76
2019-02-11T06:25:54.535Z,99142.30
2019-02-11T06:28:27.928Z,99140.33
2019-02-11T06:31:03.299Z,99149.76
2019-02-11T06:33:35.475Z,99156.77
2019-02-11T06:36:12.489Z,99167.28
2019-02-11T06:38:41.242Z,99176.52
2019-02-11T06:41:13.925Z,99181.69
2019-02-11T06:43:49.985Z,99190.91
2019-02-11T06:46:22.251Z,99196.13
2019-02-11T06:48:54.445Z,99202.91
2019-02-11T06:51:26.721Z,99204.96
2019-02-11T06:53:58.266Z,99212.79
2019-02-11T06:56:31.357Z,99229.20
2019-02-11T06:59:02.527Z,99230.14
2019-02-11T07:01:33.520Z,99230.45
2019-02-11T07:04:06.796Z,99239.52
2019-02-11T07:06:38.662Z,99237.56
2019-02-11T07:09:14.154Z,99237.42
2019-02-11T07:11:50.167Z,99251.91
2019-02-11T07:14:27.969Z,99262.10
2019-02-11T07:16:59.206Z,99271.55
2019-02-11T07:19:34.482Z,99274.12
2019-02-11T07:22:05.532Z,99275.64
2019-02-11T07:24:43.550Z,99279.23
2019-02-11T07:27:19.562Z,99286.36
2019-02-11T07:29:56.882Z,99291.59
2019-02-11T07:32:26.246Z,99299.91
2019-02-11T07:34:58.779Z,99295.62
2019-02-11T07:37:43.501Z,99302.63
2019-02-11T07:40:16.610Z,99305.87
2019-02-11T07:43:12.183Z,99309.22
2019-02-11T07:46:01.300Z,99311.67
2019-02-11T07:48:44.469Z,99312.51
2019-02-11T07:51:20.282Z,99328.41
2019-02-11T07:53:52.679Z,99341.97
2019-02-11T07:56:25.608Z,99348.17
2019-02-11T07:59:00.673Z,99353.05
2019-02-11T08:01:56.426Z,99349.48
2019-02-11T08:04:21.673Z,99351.09
2019-02-11T08:07:02.157Z,99360.73
2019-02-11T08:09:41.262Z,99363.51
2019-02-11T08:12:21.875Z,99371.47
2019-02-11T08:14:54.484Z,99378.38
2019-02-11T08:17:30.248Z,99376.53
2019-02-11T08:20:10.525Z,99382.91
2019-02-11T08:22:44.219Z,99384.27
2019-02-11T08:25:17.984Z,99384.05
2019-02-11T08:27:51.346Z,99384.64
2019-02-11T08:30:29.462Z,99392.76
2019-02-11T08:33:01.611Z,99389.97
2019-02-11T08:35:33.023Z,99395.42
2019-02-11T08:38:14.102Z,99395.42
2019-02-11T08:40:41.974Z,99404.20
2019-02-11T08:43:20.447Z,99407.30
2019-02-11T08:45:57.327Z,99410.17
2019-02-11T08:48:39.405Z,99414.62
2019-02-11T08:51:12.760Z,99425.19
2019-02-11T08:53:52.079Z,99424.13
2019-02-11T08:56:37.678Z,99428.38
2019-02-11T08:59:17.162Z,99434.09
2019-02-11T09:01:55.112Z,99440.95
2019-02-11T09:04:34.235Z,99442.61
2019-02-11T09:07:24.018Z,99443.09
2019-02-11T09:09:59.728Z,99453.66
2019-02-11T09:12:43.444Z,99455.58
2019-02-11T09:15:16.111Z,99460.66
2019-02-11T09:17:58.088Z,99463.56
2019-02-11T09:20:56.568Z,99468.93
2019-02-11T09:23:27.918Z,99479.23
2019-02-11T09:26:16.684Z,99479.38
2019-02-11T09:29:19.709Z,99481.13
2019-02-11T09:32:38.630Z,99488.80
2019-02-11T09:35:09.366Z,99480.69
2019-02-11T09:38:18.910Z,99474.10
2019-02-11T09:40:38.976Z,99499.56
2019-02-11T09:43:12.651Z,99501.52
2019-02-11T09:45:48.329Z,99513.81
2019-02-11T09:48:27.040Z,99516.30
2019-02-11T09:51:03.609Z,99518.52
2019-02-11T09:53:36.346Z,99523.02
2019-02-11T09:56:26.762Z,99530.77
2019-02-11T09:59:04.930Z,99533.92
2019-02-11T10:01:42.946Z,99534.07
2019-02-11T10:04:18.391Z,99535.74
2019-02-11T10:06:55.035Z,99538.75
2019-02-11T10:09:28.428Z,99545.98
2019-02-11T10:12:04.217Z,99555.72
2019-02-11T10:14:41.119Z,99551.70
2019-02-11T10:17:14.754Z,99542.93
2019-02-11T10:20:09.169Z,99565.67
2019-02-11T10:22:40.529Z,99563.38
2019-02-11T10:25:23.358Z,99575.96
2019-02-11T10:28:01.560Z,99569.41
2019-02-11T10:30:37.612Z,99584.87
2019-02-11T10:33:27.672Z,99590.47
2019-02-11T10:36:10.950Z,99594.48
2019-02-11T10:39:08.312Z,99603.14
2019-02-11T10:42:18.544Z,99602.03
2019-02-11T10:44:45.486Z,99599.92
2019-02-11T10:48:26.679Z,99603.95
2019-02-11T10:50:20.120Z,99612.87
2019-02-11T10:52:57.323Z,99615.81
2019-02-11T10:55:44.736Z,99614.46
2019-02-11T10:58:58.468Z,99610.72
2019-02-11T11:01:45.523Z,99628.01
2019-02-11T11:04:22.599Z,99628.59
2019-02-11T11:07:04.263Z,99634.41
2019-02-11T11:09:37.550Z,99642.11
2019-02-11T11:12:26.224Z,99648.88
2019-02-11T11:15:28.858Z,99646.37
2019-02-11T11:17:53.277Z,99663.42
2019-02-11T11:23:30.485Z,99666.41
2019-02-11T11:26:05.036Z,99670.03
2019-02-11T11:28:35.686Z,99676.79
2019-02-11T11:31:08.523Z,99689.52
2019-02-11T11:33:47.154Z,99694.19
2019-02-11T11:36:23.855Z,99734.92
2019-02-11T11:39:11.600Z,99715.66
2019-02-11T11:41:57.541Z,99725.09
2019-02-11T11:44:41.119Z,99719.71
2019-02-11T11:47:13.807Z,99728.41
2019-02-11T11:49:56.108Z,99731.02
2019-02-11T11:52:26.472Z,99739.58
2019-02-11T11:55:06.366Z,99740.06
2019-02-11T11:57:39.916Z,99725.26
2019-02-11T12:01:19.233Z,99726.52
2019-02-11T12:04:06.121Z,99730.65
2019-02-11T12:06:37.726Z,99729.36
2019-02-11T12:09:23.575Z,99740.13
2019-02-11T12:12:57.738Z,99753.93
2019-02-11T12:16:08.723Z,99757.52
2019-02-11T12:18:54.159Z,99773.42
2019-02-11T12:22:12.433Z,99778.55
2019-02-11T12:24:47.474Z,99764.27
2019-02-11T12:27:45.265Z,99781.39
2019-02-11T12:31:14.655Z,99779.80
2019-02-11T12:34:31.169Z,99783.72
2019-02-11T12:37:20.167Z,99787.66
2019-02-11T12:40:27.919Z,99799.56
2019-02-11T12:55:00.967Z,99817.98
2019-02-11T13:02:23.936Z,99836.83
2019-02-11T13:05:44.931Z,99847.45
2019-02-11T13:08:34.988Z,99853.20
2019-02-11T13:11:27.573Z,99860.41
2019-02-11T13:14:40.965Z,99863.28
2019-02-11T13:17:30.233Z,99855.70
2019-02-11T13:20:23.395Z,99870.20
2019-02-11T13:23:21.410Z,99864.41
2019-02-11T13:25:54.244Z,99870.55
2019-02-11T13:28:36.958Z,99877.50
2019-02-11T13:31:41.963Z,99883.91
2019-02-11T13:34:16.091Z,99879.80
2019-02-11T13:37:16.343Z,99884.76
2019-02-11T13:39:48.653Z,99884.99
2019-02-11T13:42:28.124Z,99896.19
2019-02-11T13:45:54.986Z,99890.61
2019-02-11T13:48:40.421Z,99886.89
2019-02-11T13:51:37.589Z,99900.24
2019-02-11T13:54:19.529Z,99911.36
2019-02-11T14:01:14.789Z,99931.42
2019-02-11T14:04:02.102Z,99930.03
2019-02-11T14:06:31.113Z,99941.53
2019-02-11T14:09:13.578Z,99962.79
2019-02-11T14:11:55.319Z,99939.94
2019-02-11T14:14:32.915Z,99950.42
2019-02-11T14:17:07.016Z,99968.41
2019-02-11T14:20:02.359Z,99968.17
2019-02-11T14:22:36.501Z,99969.09
2019-02-11T14:25:39.061Z,99985.87
2019-02-11T14:27:52.376Z,99995.27
2019-02-11T14:30:23.918Z,99999.97
2019-02-11T14:32:57.733Z,100007.45
2019-02-11T14:35:45.252Z,100004.34
2019-02-11T14:38:34.558Z,100017.60
2019-02-11T14:41:05.297Z,100005.89
2019-02-11T14:43:37.903Z,100008.50
2019-02-11T14:46:13.526Z,100023.04
2019-02-11T14:48:44.585Z,100023.95
2019-02-11T14:51:21.771Z,100026.52
2019-02-11T14:53:52.663Z,100041.91
2019-02-11T14:56:26.377Z,100043.86
2019-02-11T14:59:02.751Z,100039.00
2019-02-11T15:02:08.257Z,100041.73
2019-02-11T15:07:44.076Z,100047.83
2019-02-11T15:10:32.038Z,100077.84
2019-02-11T15:13:08.286Z,100105.78
2019-02-11T15:16:11.181Z,100128.84
2019-02-11T15:19:09.004Z,100141.12
2019-02-11T15:22:11.842Z,100147.97
2019-02-11T15:24:48.968Z,100152.27
2019-02-11T15:28:03.425Z,100153.98
2019-02-11T15:30:45.354Z,100155.05
2019-02-11T15:36:23.302Z,100179.23
2019-02-11T15:39:26.701Z,100173.08
2019-02-11T15:42:18.996Z,100187.08
2019-02-11T15:45:06.582Z,100183.97
2019-02-11T15:47:48.354Z,100198.86
2019-02-11T15:50:42.058Z,100204.75
2019-02-11T15:53:40.298Z,100208.52
2019-02-11T15:56:37.674Z,100201.89
2019-02-11T15:59:45.083Z,100220.24
2019-02-11T16:02:29.292Z,100225.97
2019-02-11T16:05:33.936Z,100238.03
2019-02-11T16:08:20.305Z,100251.22
2019-02-11T16:11:02.811Z,100258.20
2019-02-11T16:13:59.391Z,100268.46
2019-02-11T16:17:02.424Z,100274.98
2019-02-11T16:20:16.737Z,100267.05
2019-02-11T16:22:53.060Z,100292.04
2019-02-11T16:25:59.934Z,100296.34
2019-02-11T16:29:27.332Z,100309.30
2019-02-11T16:32:06.557Z,100315.18
2019-02-11T16:34:41.722Z,100313.05
2019-02-11T16:37:21.078Z,100323.40
2019-02-11T16:43:39.363Z,100331.25
2019-02-11T16:48:42.892Z,100345.42
2019-02-11T16:49:34.258Z,100345.03
2019-02-11T16:52:12.907Z,100356.72
2019-02-11T16:55:15.955Z,100373.72
2019-02-11T16:57:57.043Z,100374.62
2019-02-11T17:00:45.985Z,100379.84
2019-02-11T17:03:34.443Z,100382.67
2019-02-11T17:06:17.545Z,100381.18
2019-02-11T17:09:21.951Z,100389.17
2019-02-11T17:11:53.844Z,100396.58
2019-02-11T17:14:34.766Z,100394.70
2019-02-11T17:17:19.851Z,100400.27
2019-02-11T17:20:58.457Z,100410.44
2019-02-11T17:23:14.746Z,100418.20
2019-02-11T17:25:52.216Z,100429.80
2019-02-11T17:28:38.216Z,100449.01
2019-02-11T17:31:25.468Z,100442.84
2019-02-11T17:34:12.301Z,100453.64
2019-02-11T17:40:20.490Z,100463.44
2019-02-11T17:44:30.507Z,100473.38
2019-02-11T17:46:44.085Z,100481.38
2019-02-11T17:48:37.492Z,100479.64
2019-02-11T17:56:36.756Z,100510.63
2019-02-11T18:01:23.872Z,100514.89
2019-02-11T18:09:01.500Z,100534.69
2019-02-11T18:11:20.656Z,100531.67
2019-02-11T18:21:47.305Z,100561.09
2019-02-11T18:22:09.520Z,100548.42
2019-02-11T18:26:16.941Z,100582.23
2019-02-11T18:27:27.885Z,100582.75
2019-02-11T18:30:20.277Z,100596.48
2019-02-11T18:33:32.502Z,100599.08
2019-02-11T18:36:17.022Z,100619.74
2019-02-11T18:38:58.886Z,100611.64
2019-02-11T18:41:41.068Z,100622.83
2019-02-11T18:44:11.815Z,100631.58
2019-02-11T18:46:49.490Z,100636.19
2019-02-11T18:50:17.195Z,100638.90
2019-02-11T18:52:56.291Z,100648.39
2019-02-11T18:55:30.388Z,100667.17
2019-02-11T18:58:01.582Z,100665.92
2019-02-11T19:03:44.657Z,100678.29
2019-02-11T19:06:48.672Z,100690.02
2019-02-11T19:09:44.241Z,100694.47
2019-02-11T19:13:00.772Z,100700.44
2019-02-11T19:16:40.457Z,100706.66
2019-02-11T19:21:38.896Z,100722.13
2019-02-11T19:24:17.027Z,100724.83
2019-02-11T19:30:41.221Z,100742.01
2019-02-11T19:33:16.250Z,100735.47
2019-02-11T19:36:16.909Z,100738.96
2019-02-11T19:39:26.145Z,100744.39
2019-02-11T19:42:14.455Z,100753.73
2019-02-11T19:45:10.955Z,100765.70
2019-02-11T19:48:02.435Z,100773.73
2019-02-11T19:51:24.836Z,100777.10
2019-02-11T19:53:39.584Z,100779.36
2019-02-11T19:56:23.529Z,100777.88
2019-02-11T19:59:28.142Z,100780.44
2019-02-11T20:02:23.077Z,100786.81
2019-02-11T20:05:20.224Z,100797.55
2019-02-11T20:08:15.513Z,100808.86
2019-02-11T20:11:12.994Z,100809.31
2019-02-11T20:14:02.843Z,100816.68
2019-02-11T20:16:40.507Z,100828.86
2019-02-11T20:19:20.429Z,100837.11
2019-02-11T20:23:47.000Z,100837.09
2019-02-11T20:25:09.529Z,100831.36
2019-02-11T20:30:41.768Z,100838.16
2019-02-11T20:33:30.168Z,100840.39
2019-02-11T20:36:10.120Z,100837.67
2019-02-11T20:38:42.880Z,100848.92
2019-02-11T20:41:21.523Z,100839.30
2019-02-11T20:44:18.282Z,100840.94
2019-02-11T20:47:05.507Z,100838.52
2019-02-11T20:49:48.457Z,100831.67
2019-02-11T20:52:38.015Z,100835.80
2019-02-11T20:55:13.274Z,100844.17
2019-02-11T20:57:57.246Z,100845.03
2019-02-11T21:00:45.390Z,100841.07
2019-02-11T21:03:33.397Z,100848.00
2019-02-11T21:06:24.757Z,100838.16
2019-02-11T21:10:41.304Z,100835.94
2019-02-11T21:17:00.532Z,100868.16
2019-02-11T21:19:37.588Z,100872.55
2019-02-11T21:23:23.357Z,100884.21
2019-02-11T21:25:54.472Z,100895.73
2019-02-11T21:31:18.685Z,100902.91
2019-02-11T21:34:15.990Z,100899.59
2019-02-11T21:37:14.343Z,100910.95
2019-02-11T21:39:49.406Z,100916.53
2019-02-11T21:42:37.103Z,100924.34
2019-02-11T21:44:59.664Z,100925.60
2019-02-11T21:47:46.958Z,100923.70
2019-02-11T21:50:26.421Z,100929.77
2019-02-11T21:52:54.227Z,100928.75
2019-02-11T21:55:30.780Z,100930.19
2019-02-11T21:58:09.523Z,100928.25
2019-02-11T22:00:39.553Z,100931.10
2019-02-11T22:06:12.154Z,100923.36
2019-02-11T22:09:10.690Z,100928.80
2019-02-11T22:11:54.790Z,100925.83
2019-02-11T22:14:33.823Z,100914.55
2019-02-11T22:17:14.303Z,100921.34
2019-02-11T22:19:47.357Z,100939.06
2019-02-11T22:22:20.889Z,100938.52
2019-02-11T22:25:01.102Z,100936.62
2019-02-11T22:27:36.164Z,100934.12
2019-02-11T22:30:17.512Z,100932.79
2019-02-11T22:33:10.362Z,100945.40
2019-02-11T22:35:58.682Z,100948.77
2019-02-11T22:38:36.688Z,100956.55
2019-02-11T22:41:17.862Z,100962.37
2019-02-11T22:44:04.706Z,100970.87
2019-02-11T22:46:38.791Z,100971.91
2019-02-11T22:49:20.113Z,100969.05
2019-02-11T22:52:27.411Z,100985.53
2019-02-11T22:55:01.755Z,100992.08
2019-02-11T22:57:43.332Z,100982.77
2019-02-11T23:00:57.693Z,100992.47
2019-02-11T23:03:40.096Z,101000.47
2019-02-11T23:06:13.995Z,100996.41
2019-02-11T23:08:56.750Z,101006.03
2019-02-11T23:11:46.101Z,101015.19
2019-02-11T23:14:32.387Z,101025.34
2019-02-11T23:17:13.677Z,101032.80
2019-02-11T23:20:19.387Z,101040.06
2019-02-11T23:26:35.365Z,101037.58
2019-02-11T23:29:17.018Z,101038.69
2019-02-11T23:32:28.093Z,101040.37
2019-02-11T23:35:11.430Z,101057.65
2019-02-11T23:37:51.856Z,101055.20
2019-02-11T23:40:29.521Z,101061.09
2019-02-11T23:43:08.420Z,101053.27
2019-02-11T23:45:38.937Z,101054.22
2019-02-11T23:48:23.359Z,101057.65
2019-02-11T23:51:24.226Z,101054.66
2019-02-11T23:57:42.659Z,101057.80
